Time;durP1;ratioP1;P1;durP2;ratioP2;P2;SDS_P1;SDS_P2;PMS_P1;PMS_P2;Temp;Humidity;BMP_temperature;BMP_pressure;BME280_temperature;BME280_humidity;BME280_pressure;Samples;Min_cycle;Max_cycle;Signal;HPM_P1;HPM_P2
2022/05/02 00:08:24;;;;;;;1.13;1.02;;;;;;;;;;20828840;28;20045;-80
2022/05/02 00:18:28;;;;;;;0.63;0.63;;;;;;;;;;20827970;28;20088;-80
2022/05/02 00:28:29;;;;;;;1.33;0.93;;;;;;;;;;20827308;28;20049;-80
2022/05/02 00:38:31;;;;;;;1.05;0.73;;;;;;;;;;20826717;28;20049;-80
2022/05/02 00:48:33;;;;;;;0.70;0.70;;;;;;;;;;20826205;28;20072;-80
2022/05/02 00:58:35;;;;;;;1.05;0.85;;;;;;;;;;20807856;28;20053;-80
2022/05/02 01:08:37;;;;;;;0.80;0.80;;;;;;;;;;20824533;28;20128;-80
2022/05/02 01:18:39;;;;;;;1.15;0.73;;;;;;;;;;20824402;28;20100;-80
2022/05/02 01:28:44;;;;;;;1.50;0.80;;;;;;;;;;20806180;28;20053;-80
2022/05/02 01:38:47;;;;;;;1.45;0.90;;;;;;;;;;20823304;28;20053;-80
2022/05/02 01:48:49;;;;;;;0.60;0.60;;;;;;;;;;20822684;28;20053;-80
2022/05/02 01:58:50;;;;;;;0.85;0.77;;;;;;;;;;20822261;28;20056;-80
2022/05/02 02:08:53;;;;;;;0.70;0.70;;;;;;;;;;20804476;28;20057;-80
2022/05/02 02:18:54;;;;;;;1.02;0.85;;;;;;;;;;20804793;28;20083;-80
2022/05/02 02:28:57;;;;;;;0.80;0.80;;;;;;;;;;20821500;28;20499;-80
2022/05/02 02:38:58;;;;;;;1.02;0.93;;;;;;;;;;20830640;28;20053;-80
2022/05/02 02:49:00;;;;;;;0.93;0.82;;;;;;;;;;20817940;28;20053;-80
2022/05/02 02:59:02;;;;;;;0.70;0.70;;;;;;;;;;20834557;28;20487;-80
2022/05/02 03:09:03;;;;;;;0.88;0.88;;;;;;;;;;20833679;28;20053;-80
2022/05/02 03:19:05;;;;;;;1.27;0.90;;;;;;;;;;20815410;28;20072;-80
2022/05/02 03:29:07;;;;;;;0.90;0.90;;;;;;;;;;20814836;28;20096;-80
2022/05/02 03:39:08;;;;;;;0.70;0.70;;;;;;;;;;20831439;28;20060;-80
2022/05/02 03:49:10;;;;;;;0.80;0.60;;;;;;;;;;20829863;28;20111;-80
2022/05/02 03:59:11;;;;;;;0.90;0.90;;;;;;;;;;20828775;28;20041;-80
2022/05/02 04:09:13;;;;;;;0.80;0.80;;;;;;;;;;20811559;28;20053;-80
2022/05/02 04:19:16;;;;;;;0.70;0.70;;;;;;;;;;20828343;28;20045;-80
2022/05/02 04:29:17;;;;;;;0.75;0.70;;;;;;;;;;20827992;28;20053;-80
2022/05/02 04:39:19;;;;;;;0.90;0.90;;;;;;;;;;20809242;28;20052;-80
2022/05/02 04:49:20;;;;;;;0.60;0.60;;;;;;;;;;20826191;28;20475;-80
2022/05/02 04:59:22;;;;;;;0.82;0.82;;;;;;;;;;20825459;28;20045;-80
2022/05/02 05:09:24;;;;;;;1.00;0.90;;;;;;;;;;20823905;28;20053;-80
2022/05/02 05:19:54;;;;;;;0.70;0.70;;;;;;;;;;20806663;28;20076;-80
2022/05/02 05:30:03;;;;;;;0.70;0.70;;;;;;;;;;20825331;28;20049;-80
2022/05/02 05:40:14;;;;;;;1.95;0.82;;;;;;;;;;20805880;28;20049;-80
2022/05/02 05:50:20;;;;;;;0.95;0.80;;;;;;;;;;20822803;28;20503;-80
2022/05/02 06:00:23;;;;;;;1.00;0.87;;;;;;;;;;20823675;28;20046;-80
2022/05/02 06:10:25;;;;;;;0.77;0.77;;;;;;;;;;20826900;28;20065;-80
2022/05/02 06:20:28;;;;;;;1.08;0.68;;;;;;;;;;20820085;28;20045;-80
2022/05/02 06:30:30;;;;;;;0.80;0.70;;;;;;;;;;20819422;28;20041;-80
2022/05/02 06:40:46;;;;;;;1.02;0.75;;;;;;;;;;20818597;28;20049;-80
2022/05/02 06:50:52;;;;;;;1.13;0.70;;;;;;;;;;20835511;28;20050;-80
2022/05/02 07:01:17;;;;;;;1.00;0.80;;;;;;;;;;20817146;28;20377;-80
2022/05/02 07:11:20;;;;;;;0.70;0.70;;;;;;;;;;20816633;28;20067;-80
2022/05/02 07:21:25;;;;;;;0.80;0.80;;;;;;;;;;20832939;28;20041;-81
2022/05/02 07:31:27;;;;;;;1.30;1.20;;;;;;;;;;20832605;28;20045;-81
2022/05/02 07:41:29;;;;;;;1.83;0.80;;;;;;;;;;20814365;28;20053;-81
2022/05/02 07:51:31;;;;;;;0.80;0.80;;;;;;;;;;20830997;28;20045;-81
2022/05/02 08:01:33;;;;;;;0.90;0.90;;;;;;;;;;20812408;28;20502;-81
2022/05/02 08:11:38;;;;;;;0.82;0.82;;;;;;;;;;20828913;28;20061;-81
2022/05/02 08:21:45;;;;;;;0.77;0.70;;;;;;;;;;20828557;28;20049;-81
2022/05/02 08:31:54;;;;;;;0.95;0.90;;;;;;;;;;20827208;28;20053;-80
2022/05/02 08:42:05;;;;;;;1.67;0.90;;;;;;;;;;20828135;28;20107;-80
2022/05/02 08:52:25;;;;;;;1.00;1.00;;;;;;;;;;20808781;28;20053;-81
2022/05/02 09:02:57;;;;;;;1.20;0.80;;;;;;;;;;20826277;28;20042;-81
2022/05/02 09:13:26;;;;;;;1.10;0.98;;;;;;;;;;20807153;28;20417;-81
2022/05/02 09:23:27;;;;;;;1.35;0.90;;;;;;;;;;20808370;28;20116;-81
2022/05/02 09:33:35;;;;;;;1.20;1.10;;;;;;;;;;20823520;28;20476;-81
2022/05/02 09:56:38;;;;;;;1.75;1.38;;;;;;;;;;20821939;28;20062;-81
2022/05/02 10:04:44;;;;;;;1.33;1.20;;;;;;;;;;20821325;28;20045;-81
2022/05/02 10:14:50;;;;;;;1.33;1.20;;;;;;;;;;20836867;28;20060;-81
2022/05/02 10:24:52;;;;;;;1.98;1.20;;;;;;;;;;20837238;28;20068;-81
2022/05/02 10:34:55;;;;;;;2.17;1.48;;;;;;;;;;20836856;28;20061;-81
2022/05/02 10:45:07;;;;;;;1.45;1.30;;;;;;;;;;20836009;28;20041;-80
2022/05/02 10:55:15;;;;;;;1.65;1.50;;;;;;;;;;20817497;28;20104;-80
2022/05/02 11:05:17;;;;;;;1.35;1.25;;;;;;;;;;20816842;28;20041;-81
2022/05/02 11:15:28;;;;;;;1.77;1.40;;;;;;;;;;20833762;28;20057;-81
2022/05/02 11:25:35;;;;;;;1.88;1.30;;;;;;;;;;20832941;28;20052;-81
2022/05/02 11:35:37;;;;;;;2.38;1.30;;;;;;;;;;20832005;28;20060;-81
2022/05/02 11:45:45;;;;;;;1.58;1.13;;;;;;;;;;20814478;28;20049;-81
2022/05/02 11:55:48;;;;;;;1.90;1.45;;;;;;;;;;20830774;28;20045;-81
2022/05/02 12:05:55;;;;;;;1.70;1.50;;;;;;;;;;20829608;28;20050;-81
2022/05/02 12:15:57;;;;;;;2.40;1.60;;;;;;;;;;20828811;28;20529;-81
2022/05/02 12:26:01;;;;;;;1.50;1.40;;;;;;;;;;20810629;28;20053;-81
2022/05/02 12:36:04;;;;;;;2.08;1.40;;;;;;;;;;20827253;28;20144;-80
2022/05/02 12:46:07;;;;;;;1.67;1.13;;;;;;;;;;20826566;28;20452;-80
2022/05/02 12:56:09;;;;;;;1.33;1.23;;;;;;;;;;20826433;28;20077;-81
2022/05/02 13:06:12;;;;;;;2.22;1.70;;;;;;;;;;20825227;28;20042;-81
2022/05/02 13:16:15;;;;;;;1.50;1.30;;;;;;;;;;20806890;28;20462;-81
2022/05/02 13:26:20;;;;;;;2.10;1.25;;;;;;;;;;20823721;28;20137;-80
2022/05/02 13:36:23;;;;;;;3.03;1.80;;;;;;;;;;20806176;28;20085;-81
2022/05/02 13:46:30;;;;;;;1.83;1.23;;;;;;;;;;20822873;28;20054;-81
2022/05/02 13:56:58;;;;;;;1.50;1.40;;;;;;;;;;20791540;28;20053;-81
2022/05/02 14:07:12;;;;;;;2.65;1.40;;;;;;;;;;20822677;28;20057;-80
2022/05/02 14:17:36;;;;;;;1.70;1.60;;;;;;;;;;20789230;28;20058;-81
2022/05/02 14:27:38;;;;;;;2.25;1.88;;;;;;;;;;20821575;28;20475;-80
2022/05/02 14:37:42;;;;;;;1.88;1.45;;;;;;;;;;20801311;28;20045;-80
2022/05/02 14:47:46;;;;;;;1.88;1.55;;;;;;;;;;20835689;28;20100;-80
2022/05/02 14:57:48;;;;;;;2.55;1.60;;;;;;;;;;20835145;28;20064;-81
2022/05/02 15:07:56;;;;;;;2.15;1.88;;;;;;;;;;20817183;28;20033;-81
2022/05/02 15:18:09;;;;;;;2.72;1.88;;;;;;;;;;20816327;28;20111;-81
2022/05/02 15:38:47;;;;;;;2.38;1.70;;;;;;;;;;20832238;28;20060;-81
2022/05/02 15:49:04;;;;;;;1.90;1.70;;;;;;;;;;20831137;28;20045;-80
2022/05/02 15:59:13;;;;;;;2.70;1.90;;;;;;;;;;20830696;28;20087;-80
2022/05/02 16:19:39;;;;;;;2.20;2.00;;;;;;;;;;20829016;28;20045;-80
2022/05/02 16:29:56;;;;;;;2.30;2.10;;;;;;;;;;20810394;28;20112;-80
2022/05/02 16:39:59;;;;;;;2.85;2.10;;;;;;;;;;20809389;28;20064;-80
2022/05/02 16:50:00;;;;;;;1.75;1.65;;;;;;;;;;20809134;28;20933;-80
2022/05/02 17:00:26;;;;;;;2.47;1.65;;;;;;;;;;20807940;28;20069;-80
2022/05/02 17:10:28;;;;;;;2.38;1.77;;;;;;;;;;20825068;28;20077;-80
2022/05/02 17:20:31;;;;;;;1.45;1.35;;;;;;;;;;20824620;28;20049;-80
2022/05/02 17:30:33;;;;;;;1.40;1.30;;;;;;;;;;20790140;28;20084;-80
2022/05/02 17:40:36;;;;;;;1.58;1.30;;;;;;;;;;20805871;28;20061;-81
2022/05/02 17:50:39;;;;;;;1.50;1.40;;;;;;;;;;20805782;28;20458;-80
2022/05/02 18:00:43;;;;;;;1.77;1.20;;;;;;;;;;20822771;28;20421;-80
2022/05/02 18:10:58;;;;;;;1.70;1.00;;;;;;;;;;20834157;28;20065;-80
2022/05/02 18:21:01;;;;;;;1.10;0.90;;;;;;;;;;20838177;28;20044;-80
2022/05/02 18:31:04;;;;;;;1.15;0.95;;;;;;;;;;20819301;28;20053;-80
2022/05/02 18:41:28;;;;;;;0.88;0.82;;;;;;;;;;20836491;28;20496;-80
2022/05/02 19:01:54;;;;;;;1.77;1.13;;;;;;;;;;20834992;28;20041;-80
2022/05/02 19:11:58;;;;;;;0.60;0.60;;;;;;;;;;20834068;28;20060;-80
2022/05/02 19:22:03;;;;;;;1.08;0.80;;;;;;;;;;20833227;28;20045;-80
2022/05/02 19:32:08;;;;;;;0.70;0.70;;;;;;;;;;20834694;28;20052;-80
2022/05/02 19:42:20;;;;;;;1.15;0.77;;;;;;;;;;20831937;28;20406;-80
2022/05/02 19:52:23;;;;;;;0.70;0.70;;;;;;;;;;20830024;28;20068;-80
2022/05/02 20:02:26;;;;;;;0.80;0.60;;;;;;;;;;20830352;28;20427;-80
2022/05/02 20:12:29;;;;;;;0.60;0.60;;;;;;;;;;20829549;28;20084;-80
2022/05/02 20:22:31;;;;;;;0.52;0.50;;;;;;;;;;20828862;28;20057;-80
2022/05/02 20:42:53;;;;;;;0.65;0.60;;;;;;;;;;20795594;28;20046;-80
2022/05/02 20:52:55;;;;;;;0.70;0.50;;;;;;;;;;20808915;28;20404;-80
2022/05/02 21:02:57;;;;;;;0.75;0.50;;;;;;;;;;20825829;28;20041;-80
2022/05/02 21:13:10;;;;;;;1.42;0.80;;;;;;;;;;20825219;28;20049;-80
2022/05/02 21:23:19;;;;;;;0.93;0.65;;;;;;;;;;20824353;28;20073;-80
2022/05/02 21:33:22;;;;;;;0.70;0.70;;;;;;;;;;20824433;28;20129;-80
2022/05/02 21:43:24;;;;;;;0.70;0.50;;;;;;;;;;20805463;28;20053;-80
2022/05/02 21:53:26;;;;;;;0.40;0.40;;;;;;;;;;20822943;28;20076;-80
2022/05/02 22:03:28;;;;;;;1.15;0.60;;;;;;;;;;20822610;28;20054;-80
2022/05/02 22:13:29;;;;;;;0.32;0.30;;;;;;;;;;20822819;28;20055;-80
2022/05/02 22:23:31;;;;;;;0.50;0.50;;;;;;;;;;20804186;28;20140;-80
2022/05/02 22:33:33;;;;;;;0.98;0.68;;;;;;;;;;20822052;28;20136;-80
2022/05/02 22:43:35;;;;;;;0.55;0.50;;;;;;;;;;20803532;28;20050;-80
2022/05/02 22:53:39;;;;;;;0.60;0.45;;;;;;;;;;20793849;28;20052;-80
2022/05/02 23:03:58;;;;;;;0.63;0.50;;;;;;;;;;20835087;28;20073;-80
2022/05/02 23:14:04;;;;;;;0.75;0.60;;;;;;;;;;20833962;28;20135;-80
2022/05/02 23:24:07;;;;;;;0.50;0.50;;;;;;;;;;20833487;28;20065;-80
2022/05/02 23:34:12;;;;;;;0.80;0.60;;;;;;;;;;20833060;28;20128;-80
2022/05/02 23:44:23;;;;;;;0.40;0.40;;;;;;;;;;20832070;28;20053;-80
2022/05/02 23:54:43;;;;;;;0.50;0.50;;;;;;;;;;20831152;28;20100;-80
